sensor_id;sensor_type;location;lat;lon;timestamp;pressure;altitude;pressure_sealevel;temperature;humidity
31121;BME280;17770;45.966;13.632;2022-10-16T00:03:33;101001.00;;;21.57;54.59
31121;BME280;17770;45.966;13.632;2022-10-16T00:05:59;101007.09;;;21.57;54.36
31121;BME280;17770;45.966;13.632;2022-10-16T00:08:26;101006.34;;;21.55;54.64
31121;BME280;17770;45.966;13.632;2022-10-16T00:10:52;100999.44;;;21.54;54.09
31121;BME280;17770;45.966;13.632;2022-10-16T00:13:18;101001.22;;;21.54;54.26
31121;BME280;17770;45.966;13.632;2022-10-16T00:15:45;100999.53;;;21.53;54.23
31121;BME280;17770;45.966;13.632;2022-10-16T00:18:11;101004.88;;;21.51;54.15
31121;BME280;17770;45.966;13.632;2022-10-16T00:20:37;101005.00;;;21.50;54.59
31121;BME280;17770;45.966;13.632;2022-10-16T00:23:03;101010.13;;;21.51;54.28
31121;BME280;17770;45.966;13.632;2022-10-16T00:25:31;101003.19;;;21.50;54.47
31121;BME280;17770;45.966;13.632;2022-10-16T00:27:59;101003.28;;;21.49;54.48
31121;BME280;17770;45.966;13.632;2022-10-16T00:30:24;101008.44;;;21.50;54.37
31121;BME280;17770;45.966;13.632;2022-10-16T00:32:52;101006.88;;;21.48;54.22
31121;BME280;17770;45.966;13.632;2022-10-16T00:35:18;101006.88;;;21.48;54.42
31121;BME280;17770;45.966;13.632;2022-10-16T00:37:44;101011.25;;;21.47;54.33
31121;BME280;17770;45.966;13.632;2022-10-16T00:40:10;101009.59;;;21.46;54.39
31121;BME280;17770;45.966;13.632;2022-10-16T00:42:35;101007.88;;;21.45;54.46
31121;BME280;17770;45.966;13.632;2022-10-16T00:45:02;101017.56;;;21.45;54.32
31121;BME280;17770;45.966;13.632;2022-10-16T00:47:34;101020.28;;;21.43;54.40
31121;BME280;17770;45.966;13.632;2022-10-16T00:50:06;101017.66;;;21.43;54.53
31121;BME280;17770;45.966;13.632;2022-10-16T00:52:33;101028.16;;;21.43;54.63
31121;BME280;17770;45.966;13.632;2022-10-16T00:54:59;101021.22;;;21.42;54.35
31121;BME280;17770;45.966;13.632;2022-10-16T00:57:25;101021.22;;;21.42;54.18
31121;BME280;17770;45.966;13.632;2022-10-16T00:59:51;101021.22;;;21.42;54.64
31121;BME280;17770;45.966;13.632;2022-10-16T01:02:17;101022.25;;;21.40;54.29
31121;BME280;17770;45.966;13.632;2022-10-16T01:04:44;101028.34;;;21.40;54.55
31121;BME280;17770;45.966;13.632;2022-10-16T01:12:37;101031.91;;;21.39;54.15
31121;BME280;17770;45.966;13.632;2022-10-16T01:15:14;101036.31;;;21.39;54.48
31121;BME280;17770;45.966;13.632;2022-10-16T01:17:47;101033.69;;;21.39;54.26
31121;BME280;17770;45.966;13.632;2022-10-16T01:20:24;101040.72;;;21.38;54.43
31121;BME280;17770;45.966;13.632;2022-10-16T01:25:52;101034.72;;;21.36;54.35
31121;BME280;17770;45.966;13.632;2022-10-16T01:28:22;101036.50;;;21.36;54.34
31121;BME280;17770;45.966;13.632;2022-10-16T01:30:51;101043.56;;;21.35;54.29
31121;BME280;17770;45.966;13.632;2022-10-16T01:33:22;101048.81;;;21.35;54.17
31121;BME280;17770;45.966;13.632;2022-10-16T01:35:53;101054.13;;;21.34;54.37
31121;BME280;17770;45.966;13.632;2022-10-16T01:38:25;101043.63;;;21.34;54.36
31121;BME280;17770;45.966;13.632;2022-10-16T01:40:56;101049.81;;;21.33;54.45
31121;BME280;17770;45.966;13.632;2022-10-16T01:43:25;101045.53;;;21.32;54.34
31121;BME280;17770;45.966;13.632;2022-10-16T01:45:52;101041.19;;;21.31;54.07
31121;BME280;17770;45.966;13.632;2022-10-16T01:48:19;101057.78;;;21.31;54.23
31121;BME280;17770;45.966;13.632;2022-10-16T01:50:55;101050.88;;;21.30;54.18
31121;BME280;17770;45.966;13.632;2022-10-16T01:53:22;101051.78;;;21.29;54.81
31121;BME280;17770;45.966;13.632;2022-10-16T01:55:49;101058.00;;;21.28;54.16
31121;BME280;17770;45.966;13.632;2022-10-16T01:58:16;101057.25;;;21.26;54.69
31121;BME280;17770;45.966;13.632;2022-10-16T02:00:42;101050.22;;;21.27;54.29
31121;BME280;17770;45.966;13.632;2022-10-16T02:03:10;101052.75;;;21.28;53.92
31121;BME280;17770;45.966;13.632;2022-10-16T02:05:58;101048.41;;;21.27;54.38
31121;BME280;17770;45.966;13.632;2022-10-16T02:08:23;101056.28;;;21.27;54.25
31121;BME280;17770;45.966;13.632;2022-10-16T02:10:50;101054.63;;;21.26;54.25
31121;BME280;17770;45.966;13.632;2022-10-16T02:13:17;101057.25;;;21.26;54.26
31121;BME280;17770;45.966;13.632;2022-10-16T02:15:45;101053.75;;;21.26;54.16
31121;BME280;17770;45.966;13.632;2022-10-16T02:18:11;101061.63;;;21.26;54.41
31121;BME280;17770;45.966;13.632;2022-10-16T02:20:40;101057.34;;;21.25;54.06
31121;BME280;17770;45.966;13.632;2022-10-16T02:23:11;101060.88;;;21.24;54.27
31121;BME280;17770;45.966;13.632;2022-10-16T02:25:40;101057.44;;;21.23;54.40
31121;BME280;17770;45.966;13.632;2022-10-16T02:28:16;101055.72;;;21.22;54.51
31121;BME280;17770;45.966;13.632;2022-10-16T02:30:50;101061.94;;;21.21;54.20
31121;BME280;17770;45.966;13.632;2022-10-16T02:33:17;101063.69;;;21.21;54.28
31121;BME280;17770;45.966;13.632;2022-10-16T02:35:44;101070.75;;;21.20;54.30
31121;BME280;17770;45.966;13.632;2022-10-16T02:38:12;101068.94;;;21.21;54.25
31121;BME280;17770;45.966;13.632;2022-10-16T02:43:17;101070.09;;;21.17;54.51
31121;BME280;17770;45.966;13.632;2022-10-16T02:45:44;101071.66;;;21.19;54.28
31121;BME280;17770;45.966;13.632;2022-10-16T02:48:09;101069.16;;;21.18;54.30
31121;BME280;17770;45.966;13.632;2022-10-16T02:50:35;101075.25;;;21.18;54.30
31121;BME280;17770;45.966;13.632;2022-10-16T02:53:01;101074.38;;;21.18;54.13
31121;BME280;17770;45.966;13.632;2022-10-16T02:55:27;101075.34;;;21.17;54.31
31121;BME280;17770;45.966;13.632;2022-10-16T02:57:53;101074.59;;;21.15;54.38
31121;BME280;17770;45.966;13.632;2022-10-16T03:00:20;101072.81;;;21.15;54.01
31121;BME280;17770;45.966;13.632;2022-10-16T03:02:46;101067.66;;;21.14;54.12
31121;BME280;17770;45.966;13.632;2022-10-16T03:05:12;101069.53;;;21.12;54.35
31121;BME280;17770;45.966;13.632;2022-10-16T03:07:39;101070.28;;;21.14;54.37
31121;BME280;17770;45.966;13.632;2022-10-16T03:10:05;101071.19;;;21.13;53.87
31121;BME280;17770;45.966;13.632;2022-10-16T03:12:31;101076.44;;;21.13;54.28
31121;BME280;17770;45.966;13.632;2022-10-16T03:14:57;101072.06;;;21.13;54.04
31121;BME280;17770;45.966;13.632;2022-10-16T03:17:23;101067.66;;;21.14;54.08
31121;BME280;17770;45.966;13.632;2022-10-16T03:19:49;101069.44;;;21.13;54.07
31121;BME280;17770;45.966;13.632;2022-10-16T03:22:15;101070.34;;;21.12;54.24
31121;BME280;17770;45.966;13.632;2022-10-16T03:24:41;101072.16;;;21.12;54.37
31121;BME280;17770;45.966;13.632;2022-10-16T03:27:07;101062.56;;;21.11;54.22
31121;BME280;17770;45.966;13.632;2022-10-16T03:29:33;101066.91;;;21.12;54.49
31121;BME280;17770;45.966;13.632;2022-10-16T03:31:59;101074.78;;;21.12;54.18
31121;BME280;17770;45.966;13.632;2022-10-16T03:34:25;101068.69;;;21.11;53.94
31121;BME280;17770;45.966;13.632;2022-10-16T03:36:51;101073.06;;;21.11;54.26
31121;BME280;17770;45.966;13.632;2022-10-16T03:39:17;101067.91;;;21.09;54.24
31121;BME280;17770;45.966;13.632;2022-10-16T03:41:43;101076.66;;;21.10;54.24
31121;BME280;17770;45.966;13.632;2022-10-16T03:44:09;101072.44;;;21.07;54.32
31121;BME280;17770;45.966;13.632;2022-10-16T03:46:35;101069.88;;;21.06;54.23
31121;BME280;17770;45.966;13.632;2022-10-16T03:49:00;101069.88;;;21.06;54.43
31121;BME280;17770;45.966;13.632;2022-10-16T03:51:26;101067.34;;;21.04;54.38
31121;BME280;17770;45.966;13.632;2022-10-16T03:53:52;101070.84;;;21.05;54.29
31121;BME280;17770;45.966;13.632;2022-10-16T03:56:18;101070.84;;;21.05;54.16
31121;BME280;17770;45.966;13.632;2022-10-16T03:58:44;101070.94;;;21.03;54.42
31121;BME280;17770;45.966;13.632;2022-10-16T04:01:10;101076.19;;;21.03;54.30
31121;BME280;17770;45.966;13.632;2022-10-16T04:03:35;101072.69;;;21.03;54.15
31121;BME280;17770;45.966;13.632;2022-10-16T04:06:01;101074.41;;;21.04;54.34
31121;BME280;17770;45.966;13.632;2022-10-16T04:08:27;101071.78;;;21.04;54.27
31121;BME280;17770;45.966;13.632;2022-10-16T04:10:53;101073.56;;;21.03;54.06
31121;BME280;17770;45.966;13.632;2022-10-16T04:13:19;101072.81;;;21.01;53.97
31121;BME280;17770;45.966;13.632;2022-10-16T04:15:45;101065.69;;;21.03;54.30
31121;BME280;17770;45.966;13.632;2022-10-16T04:18:11;101069.16;;;21.04;54.14
31121;BME280;17770;45.966;13.632;2022-10-16T04:20:37;101064.84;;;21.03;54.05
31121;BME280;17770;45.966;13.632;2022-10-16T04:23:03;101062.22;;;21.03;54.06
31121;BME280;17770;45.966;13.632;2022-10-16T04:25:28;101065.78;;;21.02;53.96
31121;BME280;17770;45.966;13.632;2022-10-16T04:27:54;101064.94;;;21.01;54.13
31121;BME280;17770;45.966;13.632;2022-10-16T04:30:20;101061.44;;;21.01;54.08
31121;BME280;17770;45.966;13.632;2022-10-16T04:32:49;101063.25;;;21.00;54.01
31121;BME280;17770;45.966;13.632;2022-10-16T04:35:16;101063.44;;;20.97;54.32
31121;BME280;17770;45.966;13.632;2022-10-16T04:37:42;101065.97;;;20.99;53.91
31121;BME280;17770;45.966;13.632;2022-10-16T04:40:08;101059.78;;;21.00;54.34
31121;BME280;17770;45.966;13.632;2022-10-16T04:42:34;101066.91;;;20.98;54.43
31121;BME280;17770;45.966;13.632;2022-10-16T04:45:00;101068.59;;;20.99;54.03
31121;BME280;17770;45.966;13.632;2022-10-16T04:47:26;101063.44;;;20.97;54.36
31121;BME280;17770;45.966;13.632;2022-10-16T04:49:51;101064.34;;;20.96;54.20
31121;BME280;17770;45.966;13.632;2022-10-16T04:52:17;101061.81;;;20.95;54.38
31121;BME280;17770;45.966;13.632;2022-10-16T04:54:44;101057.50;;;20.94;54.05
31121;BME280;17770;45.966;13.632;2022-10-16T04:57:10;101057.41;;;20.95;53.83
31121;BME280;17770;45.966;13.632;2022-10-16T04:59:36;101060.22;;;20.92;54.20
31121;BME280;17770;45.966;13.632;2022-10-16T05:02:02;101054.97;;;20.92;54.08
31121;BME280;17770;45.966;13.632;2022-10-16T05:04:28;101056.75;;;20.92;54.16
31121;BME280;17770;45.966;13.632;2022-10-16T05:06:54;101054.88;;;20.94;54.22
31121;BME280;17770;45.966;13.632;2022-10-16T05:09:20;101052.38;;;20.92;54.19
31121;BME280;17770;45.966;13.632;2022-10-16T05:11:46;101059.47;;;20.90;54.12
31121;BME280;17770;45.966;13.632;2022-10-16T05:14:12;101057.78;;;20.89;54.34
31121;BME280;17770;45.966;13.632;2022-10-16T05:16:38;101058.63;;;20.90;54.23
31121;BME280;17770;45.966;13.632;2022-10-16T05:19:03;101066.59;;;20.88;53.85
31121;BME280;17770;45.966;13.632;2022-10-16T05:21:29;101066.59;;;20.88;54.04
31121;BME280;17770;45.966;13.632;2022-10-16T05:23:55;101067.53;;;20.87;53.86
31121;BME280;17770;45.966;13.632;2022-10-16T05:26:21;101079.69;;;20.88;54.31
31121;BME280;17770;45.966;13.632;2022-10-16T05:28:48;101075.41;;;20.87;54.08
31121;BME280;17770;45.966;13.632;2022-10-16T05:31:14;101075.41;;;20.87;53.97
31121;BME280;17770;45.966;13.632;2022-10-16T05:33:40;101078.13;;;20.86;54.12
31121;BME280;17770;45.966;13.632;2022-10-16T05:36:07;101084.19;;;20.86;54.13
31121;BME280;17770;45.966;13.632;2022-10-16T05:38:34;101078.94;;;20.86;54.21
31121;BME280;17770;45.966;13.632;2022-10-16T05:41:00;101078.94;;;20.86;53.89
31121;BME280;17770;45.966;13.632;2022-10-16T05:43:27;101085.13;;;20.85;54.07
31121;BME280;17770;45.966;13.632;2022-10-16T05:46:14;101093.91;;;20.84;53.98
31121;BME280;17770;45.966;13.632;2022-10-16T05:48:39;101088.66;;;20.84;54.05
31121;BME280;17770;45.966;13.632;2022-10-16T05:51:05;101091.28;;;20.84;54.03
31121;BME280;17770;45.966;13.632;2022-10-16T05:53:33;101088.75;;;20.83;54.14
31121;BME280;17770;45.966;13.632;2022-10-16T05:56:00;101092.16;;;20.85;53.98
31121;BME280;17770;45.966;13.632;2022-10-16T05:58:29;101084.19;;;20.86;54.04
31121;BME280;17770;45.966;13.632;2022-10-16T06:00:56;101091.22;;;20.86;53.87
31121;BME280;17770;45.966;13.632;2022-10-16T06:03:22;101088.66;;;20.84;54.11
31121;BME280;17770;45.966;13.632;2022-10-16T06:05:48;101090.38;;;20.85;53.80
31121;BME280;17770;45.966;13.632;2022-10-16T06:08:14;101093.09;;;20.84;54.04
31121;BME280;17770;45.966;13.632;2022-10-16T06:10:40;101096.53;;;20.84;54.05
31121;BME280;17770;45.966;13.632;2022-10-16T06:13:05;101097.47;;;20.83;53.79
31121;BME280;17770;45.966;13.632;2022-10-16T06:15:31;101103.56;;;20.84;53.72
31121;BME280;17770;45.966;13.632;2022-10-16T06:17:57;101114.88;;;20.84;53.91
31121;BME280;17770;45.966;13.632;2022-10-16T06:20:23;101122.03;;;20.82;54.00
31121;BME280;17770;45.966;13.632;2022-10-16T06:22:49;101119.41;;;20.82;54.20
31121;BME280;17770;45.966;13.632;2022-10-16T06:25:15;101131.66;;;20.82;54.12
31121;BME280;17770;45.966;13.632;2022-10-16T06:27:40;101130.00;;;20.81;54.00
31121;BME280;17770;45.966;13.632;2022-10-16T06:30:07;101134.38;;;20.80;54.07
31121;BME280;17770;45.966;13.632;2022-10-16T06:32:33;101145.81;;;20.79;54.01
31121;BME280;17770;45.966;13.632;2022-10-16T06:34:58;101152.91;;;20.77;54.22
31121;BME280;17770;45.966;13.632;2022-10-16T06:37:24;101155.63;;;20.76;54.24
31121;BME280;17770;45.966;13.632;2022-10-16T06:39:50;101166.13;;;20.76;53.97
31121;BME280;17770;45.966;13.632;2022-10-16T06:42:19;101170.50;;;20.75;54.30
31121;BME280;17770;45.966;13.632;2022-10-16T06:44:45;101167.03;;;20.74;53.92
31121;BME280;17770;45.966;13.632;2022-10-16T06:47:11;101174.16;;;20.72;54.13
31121;BME280;17770;45.966;13.632;2022-10-16T06:49:37;101173.22;;;20.73;53.90
31121;BME280;17770;45.966;13.632;2022-10-16T06:52:02;101181.19;;;20.72;53.95
31121;BME280;17770;45.966;13.632;2022-10-16T06:54:28;101181.19;;;20.72;54.13
31121;BME280;17770;45.966;13.632;2022-10-16T06:56:54;101190.81;;;20.71;53.85
31121;BME280;17770;45.966;13.632;2022-10-16T06:59:20;101187.34;;;20.71;53.84
31121;BME280;17770;45.966;13.632;2022-10-16T07:01:46;101195.22;;;20.71;53.91
31121;BME280;17770;45.966;13.632;2022-10-16T07:04:12;101200.44;;;20.71;54.08
31121;BME280;17770;45.966;13.632;2022-10-16T07:06:38;101197.81;;;20.71;53.99
31121;BME280;17770;45.966;13.632;2022-10-16T07:09:05;101200.34;;;20.72;54.01
31121;BME280;17770;45.966;13.632;2022-10-16T07:11:32;101208.06;;;20.76;54.95
31121;BME280;17770;45.966;13.632;2022-10-16T07:13:58;101216.03;;;20.74;54.00
31121;BME280;17770;45.966;13.632;2022-10-16T07:16:25;101224.03;;;20.71;53.80
31121;BME280;17770;45.966;13.632;2022-10-16T07:18:51;101227.69;;;20.68;54.00
31121;BME280;17770;45.966;13.632;2022-10-16T07:21:19;101222.38;;;20.70;53.87
31121;BME280;17770;45.966;13.632;2022-10-16T07:23:52;101229.38;;;20.69;54.03
31121;BME280;17770;45.966;13.632;2022-10-16T07:26:18;101233.03;;;20.67;53.95
31121;BME280;17770;45.966;13.632;2022-10-16T07:28:44;101239.97;;;20.68;54.26
31121;BME280;17770;45.966;13.632;2022-10-16T07:31:11;101246.16;;;20.67;53.76
31121;BME280;17770;45.966;13.632;2022-10-16T07:33:37;101247.00;;;20.67;53.83
31121;BME280;17770;45.966;13.632;2022-10-16T07:36:04;101248.84;;;20.65;53.78
31121;BME280;17770;45.966;13.632;2022-10-16T07:38:30;101250.72;;;20.63;54.14
31121;BME280;17770;45.966;13.632;2022-10-16T07:41:00;101243.78;;;20.62;53.98
31121;BME280;17770;45.966;13.632;2022-10-16T07:43:26;101245.56;;;20.62;53.62
31121;BME280;17770;45.966;13.632;2022-10-16T07:45:53;101251.72;;;20.61;53.61
31121;BME280;17770;45.966;13.632;2022-10-16T07:48:19;101265.75;;;20.60;53.84
31121;BME280;17770;45.966;13.632;2022-10-16T07:50:45;101256.97;;;20.61;53.96
31121;BME280;17770;45.966;13.632;2022-10-16T07:53:11;101260.63;;;20.58;53.66
31121;BME280;17770;45.966;13.632;2022-10-16T07:55:37;101266.72;;;20.59;53.68
31121;BME280;17770;45.966;13.632;2022-10-16T07:58:03;101262.38;;;20.58;53.62
31121;BME280;17770;45.966;13.632;2022-10-16T08:00:29;101265.00;;;20.58;53.72
31121;BME280;17770;45.966;13.632;2022-10-16T08:02:56;101268.75;;;20.54;53.49
31121;BME280;17770;45.966;13.632;2022-10-16T08:05:26;101269.41;;;20.57;53.48
31121;BME280;17770;45.966;13.632;2022-10-16T08:07:52;101262.47;;;20.56;53.43
31121;BME280;17770;45.966;13.632;2022-10-16T08:10:19;101276.16;;;20.61;53.43
31121;BME280;17770;45.966;13.632;2022-10-16T08:12:45;101265.94;;;20.57;53.42
31121;BME280;17770;45.966;13.632;2022-10-16T08:15:11;101272.94;;;20.56;53.87
31121;BME280;17770;45.966;13.632;2022-10-16T08:17:37;101276.34;;;20.58;53.61
31121;BME280;17770;45.966;13.632;2022-10-16T08:20:03;101278.97;;;20.58;53.99
31121;BME280;17770;45.966;13.632;2022-10-16T08:22:29;101283.34;;;20.58;53.83
31121;BME280;17770;45.966;13.632;2022-10-16T08:24:55;101286.81;;;20.58;53.66
31121;BME280;17770;45.966;13.632;2022-10-16T08:27:21;101283.44;;;20.56;53.81
31121;BME280;17770;45.966;13.632;2022-10-16T08:29:48;101278.88;;;20.60;53.47
31121;BME280;17770;45.966;13.632;2022-10-16T08:32:14;101284.19;;;20.58;53.85
31121;BME280;17770;45.966;13.632;2022-10-16T08:34:39;101281.59;;;20.58;53.83
31121;BME280;17770;45.966;13.632;2022-10-16T08:37:05;101283.34;;;20.58;53.70
31121;BME280;17770;45.966;13.632;2022-10-16T08:39:33;101282.53;;;20.57;53.49
31121;BME280;17770;45.966;13.632;2022-10-16T08:49:38;101281.50;;;20.60;53.87
31121;BME280;17770;45.966;13.632;2022-10-16T08:52:10;101288.41;;;20.61;53.72
31121;BME280;17770;45.966;13.632;2022-10-16T08:54:37;101287.69;;;20.59;53.62
31121;BME280;17770;45.966;13.632;2022-10-16T08:57:14;101298.91;;;20.61;53.65
31121;BME280;17770;45.966;13.632;2022-10-16T08:59:42;101296.28;;;20.61;53.58
31121;BME280;17770;45.966;13.632;2022-10-16T09:04:49;101305.00;;;20.61;53.88
31121;BME280;17770;45.966;13.632;2022-10-16T09:20:34;101306.53;;;20.65;53.37
31121;BME280;17770;45.966;13.632;2022-10-16T09:25:30;101315.22;;;20.66;53.46
31121;BME280;17770;45.966;13.632;2022-10-16T09:27:57;101318.69;;;20.66;53.45
31121;BME280;17770;45.966;13.632;2022-10-16T09:30:25;101315.06;;;20.69;53.33
31121;BME280;17770;45.966;13.632;2022-10-16T09:32:52;101315.16;;;20.67;53.35
31121;BME280;17770;45.966;13.632;2022-10-16T09:35:22;101315.97;;;20.68;53.74
31121;BME280;17770;45.966;13.632;2022-10-16T09:37:53;101313.28;;;20.69;53.56
31121;BME280;17770;45.966;13.632;2022-10-16T09:40:33;101316.66;;;20.71;53.66
31121;BME280;17770;45.966;13.632;2022-10-16T09:45:57;101327.16;;;20.71;53.63
31121;BME280;17770;45.966;13.632;2022-10-16T09:48:23;101327.91;;;20.73;53.17
31121;BME280;17770;45.966;13.632;2022-10-16T09:51:00;101328.78;;;20.74;53.24
31121;BME280;17770;45.966;13.632;2022-10-16T09:53:36;101326.88;;;20.76;53.42
31121;BME280;17770;45.966;13.632;2022-10-16T09:56:03;101326.06;;;20.76;53.53
31121;BME280;17770;45.966;13.632;2022-10-16T09:58:31;101325.97;;;20.77;53.27
31121;BME280;17770;45.966;13.632;2022-10-16T10:00:58;101321.50;;;20.79;53.22
31121;BME280;17770;45.966;13.632;2022-10-16T10:05:56;101323.16;;;20.80;53.09
31121;BME280;17770;45.966;13.632;2022-10-16T10:08:22;101324.03;;;20.81;53.25
31121;BME280;17770;45.966;13.632;2022-10-16T10:10:48;101321.31;;;20.82;53.31
31121;BME280;17770;45.966;13.632;2022-10-16T10:13:20;101319.44;;;20.84;53.26
31121;BME280;17770;45.966;13.632;2022-10-16T10:15:47;101311.56;;;20.84;53.43
31121;BME280;17770;45.966;13.632;2022-10-16T10:18:20;101310.66;;;20.85;53.40
31121;BME280;17770;45.966;13.632;2022-10-16T10:20:58;101309.69;;;20.86;53.53
31121;BME280;17770;45.966;13.632;2022-10-16T10:23:25;101315.72;;;20.88;53.30
31121;BME280;17770;45.966;13.632;2022-10-16T10:25:53;101316.56;;;20.89;53.43
31121;BME280;17770;45.966;13.632;2022-10-16T10:31:18;101305.91;;;20.92;53.42
31121;BME280;17770;45.966;13.632;2022-10-16T10:34:01;101301.50;;;20.92;53.35
31121;BME280;17770;45.966;13.632;2022-10-16T10:36:30;101301.31;;;20.95;53.21
31121;BME280;17770;45.966;13.632;2022-10-16T10:42:18;101294.16;;;20.99;53.24
31121;BME280;17770;45.966;13.632;2022-10-16T10:46:50;101294.06;;;21.00;53.25
31121;BME280;17770;45.966;13.632;2022-10-16T10:52:24;101282.53;;;21.03;53.13
31121;BME280;17770;45.966;13.632;2022-10-16T11:07:36;101280.41;;;21.09;53.10
31121;BME280;17770;45.966;13.632;2022-10-16T11:10:07;101275.06;;;21.11;53.10
31121;BME280;17770;45.966;13.632;2022-10-16T11:12:47;101274.06;;;21.13;53.11
31121;BME280;17770;45.966;13.632;2022-10-16T11:15:17;101276.69;;;21.13;52.93
31121;BME280;17770;45.966;13.632;2022-10-16T11:20:29;101274.81;;;21.15;53.32
31121;BME280;17770;45.966;13.632;2022-10-16T11:25:40;101272.88;;;21.19;52.97
31121;BME280;17770;45.966;13.632;2022-10-16T11:30:43;101263.97;;;21.21;53.07
31121;BME280;17770;45.966;13.632;2022-10-16T11:38:08;101260.28;;;21.24;52.71
31121;BME280;17770;45.966;13.632;2022-10-16T11:40:36;101260.16;;;21.27;52.90
31121;BME280;17770;45.966;13.632;2022-10-16T11:45:36;101261.72;;;21.29;52.74
31121;BME280;17770;45.966;13.632;2022-10-16T11:48:12;101262.47;;;21.31;52.98
31121;BME280;17770;45.966;13.632;2022-10-16T11:53:24;101258.00;;;21.33;52.79
31121;BME280;17770;45.966;13.632;2022-10-16T11:55:55;101257.81;;;21.36;52.99
31121;BME280;17770;45.966;13.632;2022-10-16T11:58:26;101261.28;;;21.37;52.75
31121;BME280;17770;45.966;13.632;2022-10-16T12:00:55;101263.81;;;21.38;52.86
31121;BME280;17770;45.966;13.632;2022-10-16T12:08:53;101260.91;;;21.43;53.04
31121;BME280;17770;45.966;13.632;2022-10-16T12:13:45;101259.81;;;21.47;52.74
31121;BME280;17770;45.966;13.632;2022-10-16T12:18:45;101258.94;;;21.46;53.16
31121;BME280;17770;45.966;13.632;2022-10-16T12:21:13;101261.38;;;21.49;53.28
31121;BME280;17770;45.966;13.632;2022-10-16T12:23:56;101259.72;;;21.48;53.24
31121;BME280;17770;45.966;13.632;2022-10-16T12:26:24;101262.97;;;21.52;53.31
31121;BME280;17770;45.966;13.632;2022-10-16T12:28:51;101266.44;;;21.52;53.03
31121;BME280;17770;45.966;13.632;2022-10-16T12:31:17;101266.44;;;21.52;53.44
31121;BME280;17770;45.966;13.632;2022-10-16T12:33:52;101268.16;;;21.53;53.30
31121;BME280;17770;45.966;13.632;2022-10-16T12:36:34;101267.22;;;21.54;53.37
31121;BME280;17770;45.966;13.632;2022-10-16T12:39:01;101265.34;;;21.56;52.94
31121;BME280;17770;45.966;13.632;2022-10-16T12:41:30;101268.72;;;21.58;53.19
31121;BME280;17770;45.966;13.632;2022-10-16T12:43:57;101266.09;;;21.58;53.14
31121;BME280;17770;45.966;13.632;2022-10-16T12:46:26;101277.41;;;21.59;53.14
31121;BME280;17770;45.966;13.632;2022-10-16T12:51:40;101277.31;;;21.60;53.44
31121;BME280;17770;45.966;13.632;2022-10-16T12:59:29;101279.69;;;21.65;53.61
31121;BME280;17770;45.966;13.632;2022-10-16T13:04:35;101283.91;;;21.67;53.80
31121;BME280;17770;45.966;13.632;2022-10-16T13:09:49;101282.78;;;21.71;53.65
31121;BME280;17770;45.966;13.632;2022-10-16T13:20:12;101286.09;;;21.75;53.91
31121;BME280;17770;45.966;13.632;2022-10-16T13:27:59;101281.41;;;21.80;53.97
31121;BME280;17770;45.966;13.632;2022-10-16T13:30:27;101278.72;;;21.81;53.90
31121;BME280;17770;45.966;13.632;2022-10-16T13:35:26;101280.19;;;21.85;54.08
31121;BME280;17770;45.966;13.632;2022-10-16T13:38:12;101288.81;;;21.87;54.14
31121;BME280;17770;45.966;13.632;2022-10-16T13:43:24;101287.69;;;21.91;54.18
31121;BME280;17770;45.966;13.632;2022-10-16T13:48:20;101284.91;;;21.94;53.84
31121;BME280;17770;45.966;13.632;2022-10-16T13:50:46;101285.63;;;21.96;53.92
31121;BME280;17770;45.966;13.632;2022-10-16T13:53:12;101289.00;;;21.98;53.93
31121;BME280;17770;45.966;13.632;2022-10-16T13:55:39;101294.25;;;21.98;53.94
31121;BME280;17770;45.966;13.632;2022-10-16T13:58:06;101285.34;;;22.01;53.82
31121;BME280;17770;45.966;13.632;2022-10-16T14:00:32;101284.41;;;22.02;54.13
31121;BME280;17770;45.966;13.632;2022-10-16T14:03:01;101280.84;;;22.03;54.31
31121;BME280;17770;45.966;13.632;2022-10-16T14:05:28;101286.13;;;22.03;54.10
31121;BME280;17770;45.966;13.632;2022-10-16T14:07:54;101285.06;;;22.06;53.99
31121;BME280;17770;45.966;13.632;2022-10-16T14:10:23;101280.66;;;22.06;54.24
31121;BME280;17770;45.966;13.632;2022-10-16T14:12:54;101277.94;;;22.08;54.04
31121;BME280;17770;45.966;13.632;2022-10-16T14:15:20;101280.47;;;22.09;53.92
31121;BME280;17770;45.966;13.632;2022-10-16T14:17:48;101280.47;;;22.09;54.00
31121;BME280;17770;45.966;13.632;2022-10-16T14:20:15;101279.50;;;22.10;54.42
31121;BME280;17770;45.966;13.632;2022-10-16T14:22:41;101283.00;;;22.11;53.97
31121;BME280;17770;45.966;13.632;2022-10-16T14:25:21;101281.22;;;22.11;54.00
31121;BME280;17770;45.966;13.632;2022-10-16T14:27:59;101285.53;;;22.12;54.20
31121;BME280;17770;45.966;13.632;2022-10-16T14:30:26;101281.94;;;22.13;54.25
31121;BME280;17770;45.966;13.632;2022-10-16T14:32:56;101283.66;;;22.14;54.13
31121;BME280;17770;45.966;13.632;2022-10-16T14:35:32;101285.31;;;22.15;54.28
31121;BME280;17770;45.966;13.632;2022-10-16T14:37:59;101287.84;;;22.17;54.23
31121;BME280;17770;45.966;13.632;2022-10-16T14:40:27;101293.97;;;22.17;54.52
31121;BME280;17770;45.966;13.632;2022-10-16T14:42:53;101291.25;;;22.19;54.58
31121;BME280;17770;45.966;13.632;2022-10-16T14:45:21;101292.19;;;22.18;54.61
31121;BME280;17770;45.966;13.632;2022-10-16T14:47:48;101299.97;;;22.19;54.77
31121;BME280;17770;45.966;13.632;2022-10-16T14:50:14;101301.66;;;22.20;54.65
31121;BME280;17770;45.966;13.632;2022-10-16T14:52:40;101299.88;;;22.21;54.38
31121;BME280;17770;45.966;13.632;2022-10-16T14:55:07;101300.63;;;22.23;54.41